Lowdham, United Kingdom
Current Conditions -  °F | °C
As of 6:50 PM on Saturday 25 Oct 2014 (Local Time) from EGNX Reporting Station
Scattered Clouds Scattered Clouds  
Wind Chill: 54°   Ceiling: Unl
Heat Index: 54°   Visibility: 6mi
Dew Point: 50°   Wind: 12mph
Humidity: 88%   Direction: 210°SSW
Pressure: 30"   Gusts: NA
Location:  53.01°N, 1°W
Report Text: EGNX 251750Z 21010KT 9999 FEW017 SCT025 12/10 Q1016
Loading
Personal Weather Stations






























Interactive Weather Map
Tropical Storm Tracking
New forecast layout! Learn more

10-Day Weather Forecast

Advertisements
Track Severe Weather on mobile